createdAt,value
2023-03-15T00:00:56.425Z,99814.55
2023-03-15T00:02:00.876Z,99820.48
2023-03-15T00:03:04.252Z,99824.53
2023-03-15T00:04:07.878Z,99824.02
2023-03-15T00:05:15.351Z,99831.26
2023-03-15T00:06:18.308Z,99828.28
2023-03-15T00:07:26.058Z,99831.62
2023-03-15T00:08:29.327Z,99831.63
2023-03-15T00:09:32.185Z,99830.42
2023-03-15T00:10:35.072Z,99838.89
2023-03-15T00:11:38.082Z,99841.51
2023-03-15T00:12:42.810Z,99841.84
2023-03-15T00:13:46.393Z,99855.84
2023-03-15T00:14:50.667Z,99854.36
2023-03-15T00:15:58.084Z,99853.88
2023-03-15T00:17:01.013Z,99860.45
2023-03-15T00:18:04.404Z,99859.64
2023-03-15T00:19:07.476Z,99866.61
2023-03-15T00:20:12.280Z,99863.39
2023-03-15T00:21:15.809Z,99870.94
2023-03-15T00:22:18.605Z,99878.74
2023-03-15T00:23:22.102Z,99877.19
2023-03-15T00:24:25.308Z,99876.34
2023-03-15T00:25:28.665Z,99881.80
2023-03-15T00:26:31.573Z,99879.02
2023-03-15T00:27:34.488Z,99877.60
2023-03-15T00:28:37.436Z,99877.30
2023-03-15T00:29:40.503Z,99886.61
2023-03-15T00:30:44.229Z,99886.33
2023-03-15T00:31:47.085Z,99889.97
2023-03-15T00:32:53.917Z,99887.00
2023-03-15T00:33:56.851Z,99881.89
2023-03-15T00:34:59.691Z,99877.35
2023-03-15T00:36:07.216Z,99883.39
2023-03-15T00:37:11.552Z,99881.64
2023-03-15T00:38:14.557Z,99881.39
2023-03-15T00:39:18.641Z,99891.83
2023-03-15T00:40:22.991Z,99888.57
2023-03-15T00:41:25.932Z,99894.21
2023-03-15T00:42:28.962Z,99893.48
2023-03-15T00:43:31.890Z,99894.14
2023-03-15T00:44:34.873Z,99897.77
2023-03-15T00:45:37.878Z,99892.63
2023-03-15T00:46:40.824Z,99900.45
2023-03-15T00:47:43.851Z,99896.17
2023-03-15T00:48:51.083Z,99896.90
2023-03-15T00:49:54.539Z,99893.19
2023-03-15T00:51:10.992Z,99900.81
2023-03-15T00:52:13.914Z,99895.22
2023-03-15T00:53:16.829Z,99900.20
2023-03-15T00:54:19.650Z,99903.79
2023-03-15T00:55:23.417Z,99904.59
2023-03-15T00:56:28.154Z,99911.45
2023-03-15T00:57:34.463Z,99918.27
2023-03-15T00:58:37.803Z,99916.91
2023-03-15T00:59:40.679Z,99923.40
2023-03-15T01:00:43.608Z,99924.21
2023-03-15T01:01:46.510Z,99921.57
2023-03-15T01:02:49.452Z,99926.10
2023-03-15T01:03:52.808Z,99920.97
2023-03-15T01:04:55.685Z,99929.13
2023-03-15T01:05:58.524Z,99926.42
2023-03-15T01:07:01.425Z,99928.84
2023-03-15T01:08:04.610Z,99932.08
2023-03-15T01:09:07.476Z,99933.55
2023-03-15T01:10:10.971Z,99936.31
2023-03-15T01:11:17.262Z,99938.23
2023-03-15T01:12:20.212Z,99941.14
2023-03-15T01:13:24.220Z,99937.41
2023-03-15T01:14:27.172Z,99939.66
2023-03-15T01:15:30.053Z,99939.58
2023-03-15T01:16:35.078Z,99934.63
2023-03-15T01:17:38.611Z,99941.40
2023-03-15T01:18:42.383Z,99942.48
2023-03-15T01:19:45.461Z,99947.14
2023-03-15T01:20:48.613Z,99945.19
2023-03-15T01:21:51.505Z,99949.75
2023-03-15T01:22:54.377Z,99949.02
2023-03-15T01:23:57.230Z,99946.24
2023-03-15T01:25:00.122Z,99956.03
2023-03-15T01:26:05.290Z,99956.19
2023-03-15T01:27:08.365Z,99955.16
2023-03-15T01:28:11.315Z,99955.36
2023-03-15T01:29:15.045Z,99955.52
2023-03-15T01:30:18.111Z,99959.88
2023-03-15T01:31:42.983Z,99955.14
2023-03-15T01:32:46.246Z,99950.44
2023-03-15T01:33:49.647Z,99957.34
2023-03-15T01:34:52.495Z,99957.27
2023-03-15T01:36:07.314Z,99962.14
2023-03-15T01:37:14.625Z,99960.45
2023-03-15T01:38:19.917Z,99962.45
2023-03-15T01:39:22.773Z,99970.67
2023-03-15T01:40:25.742Z,99962.81
2023-03-15T01:41:28.938Z,99965.94
2023-03-15T01:42:32.599Z,99962.59
2023-03-15T01:43:36.287Z,99971.15
2023-03-15T01:44:54.121Z,99961.77
2023-03-15T01:45:59.642Z,99966.95
2023-03-15T01:47:03.611Z,99976.13
2023-03-15T01:48:09.345Z,99980.40
2023-03-15T01:49:15.184Z,99983.14
2023-03-15T01:50:20.022Z,99980.86
2023-03-15T01:51:35.325Z,99981.06
2023-03-15T01:52:41.483Z,99982.40
2023-03-15T01:54:07.723Z,99988.23
2023-03-15T01:55:15.313Z,99991.70
2023-03-15T01:56:33.312Z,99994.23
2023-03-15T01:57:41.703Z,99997.80
2023-03-15T01:58:47.847Z,99999.38
2023-03-15T02:00:02.143Z,100005.98
2023-03-15T02:01:06.306Z,100006.03
2023-03-15T02:02:14.684Z,100013.13
2023-03-15T02:03:23.298Z,100010.89
2023-03-15T02:04:47.298Z,100014.97
2023-03-15T02:05:59.259Z,100018.07
2023-03-15T02:07:18.758Z,100017.98
2023-03-15T02:08:25.418Z,100026.91
2023-03-15T02:09:41.950Z,100022.77
2023-03-15T02:10:48.123Z,100028.52
2023-03-15T02:11:51.726Z,100031.86
2023-03-15T02:12:57.282Z,100032.96
2023-03-15T02:14:02.404Z,100034.52
2023-03-15T02:15:07.913Z,100043.65
2023-03-15T02:16:11.642Z,100047.30
2023-03-15T02:17:25.264Z,100051.53
2023-03-15T02:18:28.396Z,100046.70
2023-03-15T02:19:46.019Z,100048.82
2023-03-15T02:21:22.858Z,100051.48
2023-03-15T02:23:05.618Z,100057.66
2023-03-15T02:24:26.084Z,100058.67
2023-03-15T02:25:46.936Z,100066.01
2023-03-15T02:26:57.238Z,100065.35
2023-03-15T02:28:03.454Z,100068.15
2023-03-15T02:29:06.484Z,100072.27
2023-03-15T02:30:11.807Z,100072.19
2023-03-15T02:31:15.552Z,100078.55
2023-03-15T02:32:18.447Z,100079.38
2023-03-15T02:33:42.751Z,100076.48
2023-03-15T02:34:45.702Z,100085.86
2023-03-15T02:35:48.744Z,100090.20
2023-03-15T02:36:54.984Z,100089.12
2023-03-15T02:37:59.127Z,100083.36
2023-03-15T02:39:12.798Z,100087.48
2023-03-15T02:40:20.275Z,100094.46
2023-03-15T02:41:42.650Z,100097.16
2023-03-15T02:42:48.723Z,100096.65
2023-03-15T02:43:55.309Z,100096.86
2023-03-15T02:44:59.086Z,100101.96
2023-03-15T02:46:04.257Z,100099.76
2023-03-15T02:47:21.659Z,100103.73
2023-03-15T02:48:24.997Z,100106.46
2023-03-15T02:49:31.421Z,100107.14
2023-03-15T02:50:34.350Z,100114.25
2023-03-15T02:51:37.377Z,100114.22
2023-03-15T02:52:40.533Z,100116.66
2023-03-15T02:53:43.401Z,100119.36
2023-03-15T02:54:46.338Z,100120.66
2023-03-15T02:55:49.483Z,100117.92
2023-03-15T02:56:53.384Z,100122.17
2023-03-15T02:57:56.453Z,100123.70
2023-03-15T02:58:59.933Z,100118.97
2023-03-15T03:00:13.330Z,100124.48
2023-03-15T03:01:18.502Z,100125.64
2023-03-15T03:02:22.046Z,100128.20
2023-03-15T03:03:25.069Z,100133.20
2023-03-15T03:04:28.567Z,100136.14
2023-03-15T03:05:31.516Z,100140.02
2023-03-15T03:06:34.482Z,100144.58
2023-03-15T03:07:38.239Z,100140.82
2023-03-15T03:08:47.444Z,100142.05
2023-03-15T03:09:51.822Z,100144.77
2023-03-15T03:10:55.386Z,100146.33
2023-03-15T03:11:58.604Z,100154.23
2023-03-15T03:13:02.017Z,100156.48
2023-03-15T03:14:15.585Z,100158.52
2023-03-15T03:15:19.492Z,100162.65
2023-03-15T03:16:23.345Z,100162.80
2023-03-15T03:17:26.390Z,100165.09
2023-03-15T03:18:30.851Z,100171.54
2023-03-15T03:19:33.845Z,100171.48
2023-03-15T03:20:36.956Z,100176.35
2023-03-15T03:21:43.419Z,100174.17
2023-03-15T03:22:47.283Z,100181.36
2023-03-15T03:23:50.162Z,100190.61
2023-03-15T03:24:53.158Z,100186.11
2023-03-15T03:25:57.970Z,100199.07
2023-03-15T03:27:00.916Z,100192.58
2023-03-15T03:28:05.831Z,100195.90
2023-03-15T03:29:09.039Z,100201.04
2023-03-15T03:30:14.244Z,100196.02
2023-03-15T03:31:25.948Z,100199.88
2023-03-15T03:32:29.568Z,100202.70
2023-03-15T03:33:32.685Z,100200.17
2023-03-15T03:34:36.656Z,100207.60
2023-03-15T03:35:39.595Z,100201.92
2023-03-15T03:36:43.890Z,100208.69
2023-03-15T03:37:47.968Z,100211.98
2023-03-15T03:38:54.781Z,100212.73
2023-03-15T03:39:58.201Z,100210.83
2023-03-15T03:41:01.806Z,100218.73
2023-03-15T03:42:06.129Z,100215.30
2023-03-15T03:43:09.909Z,100219.90
2023-03-15T03:44:12.839Z,100223.73
2023-03-15T03:45:16.078Z,100222.92
2023-03-15T03:46:19.987Z,100222.48
2023-03-15T03:47:25.760Z,100223.05
2023-03-15T03:48:29.022Z,100224.83
2023-03-15T03:49:32.129Z,100233.02
2023-03-15T03:50:35.357Z,100231.30
2023-03-15T03:51:38.669Z,100234.02
2023-03-15T03:52:44.126Z,100241.29
2023-03-15T03:53:51.497Z,100243.64
2023-03-15T03:54:54.919Z,100247.89
2023-03-15T03:55:57.857Z,100254.58
2023-03-15T03:57:00.839Z,100255.87
2023-03-15T03:58:07.370Z,100263.21
2023-03-15T03:59:23.704Z,100261.14
2023-03-15T04:00:32.018Z,100271.23
2023-03-15T04:01:34.972Z,100267.05
2023-03-15T04:02:38.181Z,100276.51
2023-03-15T04:03:43.387Z,100275.77
2023-03-15T04:04:50.628Z,100284.59
2023-03-15T04:05:57.935Z,100282.30
2023-03-15T04:07:01.126Z,100285.98
2023-03-15T04:08:11.996Z,100288.99
2023-03-15T04:09:16.695Z,100292.70
2023-03-15T04:10:26.952Z,100297.63
2023-03-15T04:11:30.217Z,100304.48
2023-03-15T04:12:38.259Z,100304.08
2023-03-15T04:13:41.481Z,100310.67
2023-03-15T04:14:44.812Z,100317.86
2023-03-15T04:15:48.876Z,100316.71
2023-03-15T04:16:54.728Z,100320.68
2023-03-15T04:17:58.754Z,100322.83
2023-03-15T04:19:08.733Z,100319.48
2023-03-15T04:20:13.141Z,100322.27
2023-03-15T04:21:23.225Z,100326.02
2023-03-15T04:22:29.924Z,100327.34
2023-03-15T04:23:39.192Z,100327.08
2023-03-15T04:24:58.420Z,100327.98
2023-03-15T04:26:28.841Z,100333.08
2023-03-15T04:28:03.055Z,100334.09
2023-03-15T04:29:17.921Z,100341.54
2023-03-15T04:30:31.893Z,100335.31
2023-03-15T04:32:04.668Z,100345.30
2023-03-15T04:33:32.914Z,100353.27
2023-03-15T04:34:56.199Z,100359.42
2023-03-15T04:36:18.964Z,100354.20
2023-03-15T04:37:47.722Z,100361.33
2023-03-15T04:39:13.613Z,100364.94
2023-03-15T04:40:36.406Z,100361.30
2023-03-15T04:42:09.352Z,100361.50
2023-03-15T04:43:18.380Z,100363.83
2023-03-15T04:44:49.526Z,100370.17
2023-03-15T04:46:11.282Z,100366.70
2023-03-15T04:47:33.122Z,100369.35
2023-03-15T04:49:14.659Z,100370.73
2023-03-15T04:50:40.810Z,100372.96
2023-03-15T04:51:58.563Z,100370.17
2023-03-15T04:53:14.632Z,100372.60
2023-03-15T04:54:50.177Z,100370.17
2023-03-15T04:56:09.730Z,100374.13
2023-03-15T04:57:32.900Z,100371.88
2023-03-15T04:58:48.531Z,100371.41
2023-03-15T05:00:12.034Z,100375.98
2023-03-15T05:01:30.677Z,100379.39
2023-03-15T05:03:12.411Z,100381.17
2023-03-15T05:04:32.407Z,100384.67
2023-03-15T05:05:48.189Z,100389.31
2023-03-15T05:07:15.549Z,100386.66
2023-03-15T05:08:31.429Z,100393.26
2023-03-15T05:09:48.122Z,100392.15
2023-03-15T05:11:10.012Z,100394.24
2023-03-15T05:12:34.846Z,100394.30
2023-03-15T05:13:50.448Z,100396.70
2023-03-15T05:14:54.360Z,100398.72
2023-03-15T05:16:15.939Z,100399.93
2023-03-15T05:17:37.442Z,100403.52
2023-03-15T05:18:58.908Z,100402.29
2023-03-15T05:20:34.694Z,100407.38
2023-03-15T05:21:55.994Z,100406.82
2023-03-15T05:23:15.946Z,100409.61
2023-03-15T05:24:41.881Z,100408.17
2023-03-15T05:26:00.920Z,100412.02
2023-03-15T05:27:23.564Z,100413.36
2023-03-15T05:28:45.464Z,100417.14
2023-03-15T05:30:21.635Z,100420.98
2023-03-15T05:31:43.355Z,100428.77
2023-03-15T05:33:19.739Z,100434.51
2023-03-15T05:34:55.338Z,100434.59
2023-03-15T05:36:17.631Z,100436.16
2023-03-15T05:37:43.747Z,100438.29
2023-03-15T05:39:16.752Z,100436.91
2023-03-15T05:40:38.360Z,100447.63
2023-03-15T05:42:04.206Z,100451.66
2023-03-15T05:43:27.548Z,100455.67
2023-03-15T05:44:54.114Z,100454.19
2023-03-15T05:45:59.879Z,100453.67
2023-03-15T05:47:24.465Z,100452.27
2023-03-15T05:48:42.871Z,100449.66
2023-03-15T05:50:05.548Z,100457.21
2023-03-15T05:51:30.083Z,100455.46
2023-03-15T05:52:52.416Z,100461.91
2023-03-15T05:54:07.920Z,100465.48
2023-03-15T05:55:23.337Z,100475.06
2023-03-15T05:56:46.336Z,100484.48
2023-03-15T05:58:00.733Z,100492.13
2023-03-15T05:59:29.157Z,100497.39
2023-03-15T06:01:01.557Z,100501.86
2023-03-15T06:02:21.635Z,100498.08
2023-03-15T06:03:32.078Z,100504.73
2023-03-15T06:04:39.658Z,100511.70
2023-03-15T06:05:43.446Z,100500.80
2023-03-15T06:06:51.438Z,100510.60
2023-03-15T06:07:54.770Z,100520.73
2023-03-15T06:08:57.816Z,100515.09
2023-03-15T06:10:00.708Z,100514.67
2023-03-15T06:11:03.714Z,100515.44
2023-03-15T06:12:07.256Z,100513.52
2023-03-15T06:13:10.307Z,100524.08
2023-03-15T06:14:13.889Z,100520.88
2023-03-15T06:15:28.006Z,100516.54
2023-03-15T06:16:31.490Z,100521.87
2023-03-15T06:17:35.154Z,100529.52
2023-03-15T06:18:38.131Z,100530.32
2023-03-15T06:19:41.035Z,100533.14
2023-03-15T06:20:44.758Z,100536.84
2023-03-15T06:21:49.988Z,100535.05
2023-03-15T06:23:18.932Z,100533.52
2023-03-15T06:24:22.944Z,100538.30
2023-03-15T06:25:26.086Z,100545.42
2023-03-15T06:26:28.957Z,100542.44
2023-03-15T06:27:35.517Z,100540.15
2023-03-15T06:28:38.720Z,100543.11
2023-03-15T06:29:42.104Z,100540.51
2023-03-15T06:30:45.806Z,100550.55
2023-03-15T06:31:53.065Z,100547.10
2023-03-15T06:33:04.336Z,100550.42
2023-03-15T06:34:07.342Z,100552.98
2023-03-15T06:35:10.444Z,100550.15
2023-03-15T06:36:14.336Z,100552.93
2023-03-15T06:37:28.843Z,100550.24
2023-03-15T06:38:37.877Z,100552.40
2023-03-15T06:39:42.155Z,100554.52
2023-03-15T06:40:45.349Z,100552.80
2023-03-15T06:41:48.265Z,100559.54
2023-03-15T06:42:55.027Z,100559.05
2023-03-15T06:43:58.082Z,100555.33
2023-03-15T06:45:02.486Z,100568.90
2023-03-15T06:46:06.000Z,100570.51
2023-03-15T06:47:10.573Z,100573.66
2023-03-15T06:48:15.191Z,100564.91
2023-03-15T06:49:18.282Z,100567.30
2023-03-15T06:50:21.244Z,100572.46
2023-03-15T06:51:24.212Z,100574.59
2023-03-15T06:52:27.311Z,100576.60
2023-03-15T06:53:30.268Z,100577.59
2023-03-15T06:54:33.303Z,100580.15
2023-03-15T06:55:36.376Z,100591.05
2023-03-15T06:56:39.855Z,100587.96
2023-03-15T06:57:44.686Z,100588.48
2023-03-15T06:58:47.851Z,100599.09
2023-03-15T06:59:50.899Z,100597.59
2023-03-15T07:00:53.758Z,100597.80
2023-03-15T07:01:56.703Z,100600.86
2023-03-15T07:02:59.702Z,100602.64
2023-03-15T07:04:03.351Z,100607.91
2023-03-15T07:05:07.044Z,100610.64
2023-03-15T07:06:10.053Z,100611.11
2023-03-15T07:07:13.607Z,100613.14
2023-03-15T07:08:16.531Z,100615.46
2023-03-15T07:09:19.966Z,100619.67
2023-03-15T07:10:22.899Z,100623.13
2023-03-15T07:11:25.750Z,100634.77
2023-03-15T07:12:28.814Z,100631.32
2023-03-15T07:13:31.722Z,100636.84
2023-03-15T07:14:34.962Z,100641.55
2023-03-15T07:15:37.984Z,100640.17
2023-03-15T07:16:40.984Z,100641.44
2023-03-15T07:17:43.857Z,100644.69
2023-03-15T07:18:46.730Z,100643.10
2023-03-15T07:19:56.304Z,100645.02
2023-03-15T07:21:01.585Z,100644.92
2023-03-15T07:22:04.657Z,100646.16
2023-03-15T07:23:07.651Z,100648.75
2023-03-15T07:24:10.580Z,100645.89
2023-03-15T07:25:13.956Z,100651.38
2023-03-15T07:26:16.936Z,100655.06
2023-03-15T07:27:19.807Z,100670.91
2023-03-15T07:28:25.074Z,100655.77
2023-03-15T07:29:27.928Z,100658.21
2023-03-15T07:30:30.880Z,100664.01
2023-03-15T07:31:33.732Z,100649.43
2023-03-15T07:32:36.725Z,100651.52
2023-03-15T07:33:39.887Z,100657.02
2023-03-15T07:34:43.030Z,100651.31
2023-03-15T07:35:46.027Z,100650.96
2023-03-15T07:36:48.929Z,100661.33
2023-03-15T07:37:51.883Z,100659.82
2023-03-15T07:38:54.986Z,100654.38
2023-03-15T07:40:00.312Z,100659.32
2023-03-15T07:41:05.992Z,100660.31
2023-03-15T07:42:09.233Z,100659.95
2023-03-15T07:43:19.525Z,100662.60
2023-03-15T07:44:25.857Z,100656.73
2023-03-15T07:45:28.715Z,100661.01
2023-03-15T07:46:31.811Z,100660.57
2023-03-15T07:47:34.841Z,100662.10
2023-03-15T07:48:37.951Z,100669.66
2023-03-15T07:49:41.039Z,100668.92
2023-03-15T07:50:45.538Z,100666.24
2023-03-15T07:51:48.553Z,100671.11
2023-03-15T07:52:51.548Z,100666.45
2023-03-15T07:53:54.566Z,100672.38
2023-03-15T07:54:57.756Z,100673.23
2023-03-15T07:56:01.369Z,100671.98
2023-03-15T07:57:04.657Z,100676.40
2023-03-15T07:58:08.043Z,100679.47
2023-03-15T07:59:11.130Z,100675.24
2023-03-15T08:00:14.608Z,100684.58
2023-03-15T08:01:17.478Z,100687.73
2023-03-15T08:02:20.795Z,100689.23
2023-03-15T08:03:26.914Z,100686.35
2023-03-15T08:04:30.040Z,100695.36
2023-03-15T08:05:34.199Z,100689.55
2023-03-15T08:06:37.015Z,100696.31
2023-03-15T08:07:40.084Z,100694.81
2023-03-15T08:08:42.918Z,100700.10
2023-03-15T08:09:46.371Z,100700.01
2023-03-15T08:10:49.703Z,100695.49
2023-03-15T08:11:52.683Z,100701.48
2023-03-15T08:12:55.603Z,100702.59
2023-03-15T08:13:58.523Z,100708.01
2023-03-15T08:15:01.290Z,100713.23
2023-03-15T08:16:04.689Z,100713.45
2023-03-15T08:17:12.450Z,100719.54
2023-03-15T08:18:15.363Z,100714.76
2023-03-15T08:19:18.871Z,100716.85
2023-03-15T08:20:22.534Z,100717.22
2023-03-15T08:21:25.394Z,100716.75
2023-03-15T08:22:28.321Z,100717.86
2023-03-15T08:23:31.319Z,100720.84
2023-03-15T08:24:35.078Z,100719.69
2023-03-15T08:25:40.978Z,100727.04
2023-03-15T08:26:44.072Z,100725.91
2023-03-15T08:27:48.126Z,100728.31
2023-03-15T08:28:50.949Z,100731.48
2023-03-15T08:29:53.857Z,100735.27
2023-03-15T08:30:56.760Z,100730.55
2023-03-15T08:31:59.660Z,100733.21
2023-03-15T08:33:03.773Z,100731.20
2023-03-15T08:34:07.477Z,100731.51
2023-03-15T08:35:15.478Z,100737.48
2023-03-15T08:36:19.739Z,100741.95
2023-03-15T08:37:22.769Z,100742.80
2023-03-15T08:38:26.316Z,100745.58
2023-03-15T08:39:29.227Z,100746.81
2023-03-15T08:40:32.146Z,100740.34
2023-03-15T08:41:35.419Z,100752.23
2023-03-15T08:42:38.742Z,100759.02
2023-03-15T08:43:41.635Z,100757.08
2023-03-15T08:44:44.425Z,100758.90
2023-03-15T08:46:00.160Z,100756.64
2023-03-15T08:47:05.365Z,100763.45
2023-03-15T08:48:08.269Z,100768.57
2023-03-15T08:49:11.094Z,100770.95
2023-03-15T08:50:16.507Z,100768.60
2023-03-15T08:51:21.348Z,100775.73
2023-03-15T08:52:24.234Z,100773.92
2023-03-15T08:53:27.159Z,100782.44
2023-03-15T08:54:30.024Z,100782.93
2023-03-15T08:55:33.031Z,100784.14
2023-03-15T08:56:36.076Z,100786.86
2023-03-15T08:57:39.423Z,100783.38
2023-03-15T08:58:42.485Z,100793.34
2023-03-15T08:59:45.720Z,100792.27
2023-03-15T09:00:51.572Z,100786.87
2023-03-15T09:01:54.441Z,100793.89
2023-03-15T09:02:57.355Z,100797.23
2023-03-15T09:04:01.368Z,100799.28
2023-03-15T09:05:07.140Z,100804.30
2023-03-15T09:06:10.514Z,100807.64
2023-03-15T09:07:13.869Z,100801.95
2023-03-15T09:08:21.019Z,100812.16
2023-03-15T09:09:23.894Z,100810.64
2023-03-15T09:10:26.834Z,100812.52
2023-03-15T09:11:29.719Z,100820.70
2023-03-15T09:12:32.569Z,100825.63
2023-03-15T09:13:35.433Z,100813.68
2023-03-15T09:14:38.406Z,100820.25
2023-03-15T09:15:41.256Z,100826.48
2023-03-15T09:16:44.307Z,100823.02
2023-03-15T09:17:50.309Z,100829.97
2023-03-15T09:18:53.263Z,100827.08
2023-03-15T09:19:59.391Z,100834.08
2023-03-15T09:21:02.329Z,100836.39
2023-03-15T09:22:16.270Z,100836.36
2023-03-15T09:23:26.524Z,100835.86
2023-03-15T09:24:29.599Z,100836.63
2023-03-15T09:25:32.755Z,100835.05
2023-03-15T09:26:35.560Z,100840.12
2023-03-15T09:27:38.578Z,100843.00
2023-03-15T09:28:41.479Z,100839.48
2023-03-15T09:29:44.280Z,100836.92
2023-03-15T09:30:47.185Z,100838.09
2023-03-15T09:31:50.082Z,100843.39
2023-03-15T09:32:53.226Z,100844.71
2023-03-15T09:33:56.817Z,100842.13
2023-03-15T09:34:59.656Z,100844.95
2023-03-15T09:36:02.709Z,100846.35
2023-03-15T09:37:05.520Z,100845.98
2023-03-15T09:38:09.064Z,100839.77
2023-03-15T09:39:12.050Z,100840.42
2023-03-15T09:40:18.015Z,100848.27
2023-03-15T09:41:56.691Z,100847.85
2023-03-15T09:43:14.340Z,100843.23
2023-03-15T09:44:19.985Z,100842.63
2023-03-15T09:45:41.675Z,100845.86
2023-03-15T09:46:50.239Z,100844.77
2023-03-15T09:48:08.122Z,100846.10
2023-03-15T09:49:41.368Z,100846.88
2023-03-15T09:50:54.268Z,100849.23
2023-03-15T09:52:14.594Z,100849.06
2023-03-15T09:53:17.776Z,100849.50
2023-03-15T09:54:28.838Z,100854.75
2023-03-15T09:55:32.439Z,100853.77
2023-03-15T09:57:09.507Z,100853.98
2023-03-15T09:58:19.407Z,100860.09
2023-03-15T09:59:30.144Z,100860.08
2023-03-15T10:00:41.482Z,100859.05
2023-03-15T10:01:45.827Z,100861.38
2023-03-15T10:03:02.310Z,100861.25
2023-03-15T10:04:16.824Z,100859.94
2023-03-15T10:05:32.196Z,100867.96
2023-03-15T10:06:38.040Z,100864.78
2023-03-15T10:07:41.326Z,100869.30
2023-03-15T10:08:46.947Z,100867.05
2023-03-15T10:09:50.040Z,100868.08
2023-03-15T10:11:08.811Z,100868.20
2023-03-15T10:12:17.176Z,100871.89
2023-03-15T10:13:50.970Z,100874.75
2023-03-15T10:15:31.615Z,100876.27
2023-03-15T10:16:48.970Z,100874.48
2023-03-15T10:18:05.637Z,100878.23
2023-03-15T10:19:22.998Z,100876.74
2023-03-15T10:20:34.237Z,100882.38
2023-03-15T10:21:44.182Z,100885.67
2023-03-15T10:22:51.276Z,100885.61
2023-03-15T10:23:55.031Z,100888.48
2023-03-15T10:25:26.402Z,100889.50
2023-03-15T10:26:36.390Z,100894.88
2023-03-15T10:27:52.000Z,100893.83
2023-03-15T10:28:55.387Z,100896.17
2023-03-15T10:30:00.089Z,100901.64
2023-03-15T10:31:22.368Z,100900.40
2023-03-15T10:32:34.438Z,100905.29
2023-03-15T10:33:39.016Z,100907.63
2023-03-15T10:34:41.908Z,100908.73
2023-03-15T10:35:45.203Z,100910.63
2023-03-15T10:36:50.235Z,100912.25
2023-03-15T10:37:56.135Z,100909.55
2023-03-15T10:38:58.934Z,100911.92
2023-03-15T10:40:01.798Z,100907.13
2023-03-15T10:41:06.348Z,100915.11
2023-03-15T10:42:25.061Z,100914.59
2023-03-15T10:43:32.041Z,100914.79
2023-03-15T10:44:37.940Z,100922.46
2023-03-15T10:45:40.819Z,100920.20
2023-03-15T10:47:04.645Z,100923.75
2023-03-15T10:48:13.843Z,100926.21
2023-03-15T10:49:16.885Z,100928.19
2023-03-15T10:50:37.002Z,100934.67
2023-03-15T10:51:45.892Z,100929.21
2023-03-15T10:52:51.274Z,100932.04
2023-03-15T10:53:57.459Z,100932.95
2023-03-15T10:55:04.973Z,100936.16
2023-03-15T10:56:21.221Z,100935.73
2023-03-15T10:57:28.720Z,100932.95
2023-03-15T10:59:01.679Z,100937.98
2023-03-15T11:00:37.710Z,100936.16
2023-03-15T11:01:40.779Z,100941.13
2023-03-15T11:03:03.240Z,100935.45
2023-03-15T11:04:09.146Z,100936.07
2023-03-15T11:05:14.639Z,100941.60
2023-03-15T11:06:26.151Z,100945.27
2023-03-15T11:07:29.276Z,100938.45
2023-03-15T11:08:41.238Z,100937.77
2023-03-15T11:09:58.874Z,100941.48
2023-03-15T11:11:01.960Z,100943.77
2023-03-15T11:12:07.729Z,100944.30
2023-03-15T11:13:20.982Z,100948.53
2023-03-15T11:14:25.326Z,100949.06
2023-03-15T11:15:29.262Z,100950.06
2023-03-15T11:16:37.742Z,100943.64
2023-03-15T11:17:46.860Z,100945.45
2023-03-15T11:19:01.586Z,100942.88
2023-03-15T11:20:19.989Z,100941.65
2023-03-15T11:21:33.658Z,100946.95
2023-03-15T11:22:36.521Z,100943.52
2023-03-15T11:23:46.052Z,100943.17
2023-03-15T11:24:49.452Z,100940.86
2023-03-15T11:25:54.080Z,100943.60
2023-03-15T11:27:03.791Z,100941.46
2023-03-15T11:28:11.058Z,100936.95
2023-03-15T11:29:24.861Z,100939.25
2023-03-15T11:30:31.408Z,100943.83
2023-03-15T11:31:35.847Z,100945.30
2023-03-15T11:32:39.821Z,100947.94
2023-03-15T11:33:53.751Z,100949.10
2023-03-15T11:35:33.527Z,100956.03
2023-03-15T11:36:41.431Z,100952.70
2023-03-15T11:38:03.165Z,100952.13
2023-03-15T11:39:18.184Z,100954.52
2023-03-15T11:40:23.173Z,100955.61
2023-03-15T11:41:51.586Z,100957.48
2023-03-15T11:42:59.916Z,100959.38
2023-03-15T11:44:28.782Z,100957.86
2023-03-15T11:45:58.544Z,100963.25
2023-03-15T11:47:53.036Z,100963.28
2023-03-15T11:49:19.426Z,100963.70
2023-03-15T11:50:22.537Z,100965.88
2023-03-15T11:51:25.492Z,100975.80
2023-03-15T11:52:29.768Z,100970.50
2023-03-15T11:53:38.642Z,100977.50
2023-03-15T11:54:41.546Z,100976.20
2023-03-15T11:55:50.331Z,100977.73
2023-03-15T11:57:01.507Z,100978.81
2023-03-15T11:58:28.167Z,100979.39
2023-03-15T11:59:33.792Z,100976.69
2023-03-15T12:00:37.880Z,100977.93
2023-03-15T12:01:54.953Z,100981.05
2023-03-15T12:03:19.503Z,100978.39
2023-03-15T12:04:25.763Z,100979.98
2023-03-15T12:05:45.721Z,100977.84
2023-03-15T12:06:48.784Z,100982.30
2023-03-15T12:07:59.429Z,100984.77
2023-03-15T12:09:24.819Z,100978.46
2023-03-15T12:10:33.182Z,100983.42
2023-03-15T12:11:38.714Z,100984.86
2023-03-15T12:12:46.354Z,100984.77
2023-03-15T12:14:25.509Z,100986.40
2023-03-15T12:15:28.352Z,100991.11
2023-03-15T12:16:39.239Z,100990.88
2023-03-15T12:17:49.960Z,100991.98
2023-03-15T12:18:54.282Z,100989.75
2023-03-15T12:20:21.406Z,100985.33
2023-03-15T12:21:38.882Z,100992.48
2023-03-15T12:22:48.417Z,100995.14
2023-03-15T12:24:03.919Z,101001.16
2023-03-15T12:25:15.438Z,101002.95
2023-03-15T12:26:27.034Z,101001.72
2023-03-15T12:27:30.733Z,101004.71
2023-03-15T12:29:08.997Z,101002.23
2023-03-15T12:30:23.561Z,101004.39
2023-03-15T12:31:42.272Z,101006.31
2023-03-15T12:32:50.497Z,101013.48
2023-03-15T12:33:58.564Z,101004.36
2023-03-15T12:35:16.156Z,101001.23
2023-03-15T12:36:32.196Z,100997.77
2023-03-15T12:37:37.963Z,101004.96
2023-03-15T12:38:41.940Z,101015.88
2023-03-15T12:39:48.257Z,101012.38
2023-03-15T12:40:52.819Z,101010.83
2023-03-15T12:41:55.696Z,101008.05
2023-03-15T12:43:03.243Z,101007.36
2023-03-15T12:44:18.683Z,101003.67
2023-03-15T12:45:27.592Z,101008.94
2023-03-15T12:46:36.854Z,101011.01
2023-03-15T12:47:52.163Z,101007.17
2023-03-15T12:49:12.164Z,101005.07
2023-03-15T12:50:45.878Z,101011.45
2023-03-15T12:51:59.598Z,101008.05
2023-03-15T12:53:13.194Z,101007.14
2023-03-15T12:54:16.425Z,101014.83
2023-03-15T12:55:19.675Z,101011.39
2023-03-15T12:56:32.783Z,101015.61
2023-03-15T12:57:56.450Z,101019.86
2023-03-15T12:59:05.778Z,101021.95
2023-03-15T13:00:18.739Z,101024.86
2023-03-15T13:01:25.718Z,101023.82
2023-03-15T13:02:42.140Z,101023.27
2023-03-15T13:03:46.347Z,101024.52
2023-03-15T13:04:49.718Z,101027.14
2023-03-15T13:06:06.127Z,101033.07
2023-03-15T13:07:48.957Z,101031.58
2023-03-15T13:09:00.996Z,101028.55
2023-03-15T13:10:27.061Z,101029.61